sensor_id;sensor_type;location;lat;lon;timestamp;pressure;altitude;pressure_sealevel;temperature;humidity
81909;BME280;71372;43.514;1.512;2024-01-27T00:02:00;101702.47;;;9.83;83.15
81909;BME280;71372;43.514;1.512;2024-01-27T00:04:26;101699.91;;;9.77;83.63
81909;BME280;71372;43.514;1.512;2024-01-27T00:06:52;101696.41;;;9.75;83.18
81909;BME280;71372;43.514;1.512;2024-01-27T00:09:18;101688.38;;;9.76;83.08
81909;BME280;71372;43.514;1.512;2024-01-27T00:11:44;101683.13;;;9.73;83.34
81909;BME280;71372;43.514;1.512;2024-01-27T00:14:11;101692.91;;;9.73;83.45
81909;BME280;71372;43.514;1.512;2024-01-27T00:16:37;101679.59;;;9.73;83.25
81909;BME280;71372;43.514;1.512;2024-01-27T00:19:03;101675.28;;;9.65;83.78
81909;BME280;71372;43.514;1.512;2024-01-27T00:21:29;101680.56;;;9.67;82.97
81909;BME280;71372;43.514;1.512;2024-01-27T00:23:54;101671.72;;;9.66;83.67
81909;BME280;71372;43.514;1.512;2024-01-27T00:26:26;101676.13;;;9.67;83.19
81909;BME280;71372;43.514;1.512;2024-01-27T00:28:53;101677.91;;;9.67;83.69
81909;BME280;71372;43.514;1.512;2024-01-27T00:31:19;101677.00;;;9.68;83.32
81909;BME280;71372;43.514;1.512;2024-01-27T00:33:45;101673.50;;;9.66;82.95
81909;BME280;71372;43.514;1.512;2024-01-27T00:36:11;101682.41;;;9.63;83.53
81909;BME280;71372;43.514;1.512;2024-01-27T00:38:37;101682.47;;;9.60;83.96
81909;BME280;71372;43.514;1.512;2024-01-27T00:41:04;101684.38;;;9.52;83.78
81909;BME280;71372;43.514;1.512;2024-01-27T00:43:30;101680.97;;;9.44;83.97
81909;BME280;71372;43.514;1.512;2024-01-27T00:45:56;101679.28;;;9.40;84.12
81909;BME280;71372;43.514;1.512;2024-01-27T00:48:22;101688.13;;;9.41;83.99
81909;BME280;71372;43.514;1.512;2024-01-27T00:50:48;101684.59;;;9.40;83.51
81909;BME280;71372;43.514;1.512;2024-01-27T00:53:14;101668.72;;;9.37;84.30
81909;BME280;71372;43.514;1.512;2024-01-27T00:55:40;101671.41;;;9.35;83.44
81909;BME280;71372;43.514;1.512;2024-01-27T00:58:07;101679.38;;;9.34;84.28
81909;BME280;71372;43.514;1.512;2024-01-27T01:00:33;101679.41;;;9.32;83.72
81909;BME280;71372;43.514;1.512;2024-01-27T01:02:59;101678.63;;;9.27;84.42
81909;BME280;71372;43.514;1.512;2024-01-27T01:05:25;101681.28;;;9.27;84.76
81909;BME280;71372;43.514;1.512;2024-01-27T01:07:51;101676.00;;;9.26;83.47
81909;BME280;71372;43.514;1.512;2024-01-27T01:10:17;101678.69;;;9.24;84.11
81909;BME280;71372;43.514;1.512;2024-01-27T01:12:43;101675.16;;;9.22;83.58
81909;BME280;71372;43.514;1.512;2024-01-27T01:15:09;101670.75;;;9.20;83.46
81909;BME280;71372;43.514;1.512;2024-01-27T01:17:35;101681.41;;;9.18;83.73
81909;BME280;71372;43.514;1.512;2024-01-27T01:20:01;101682.34;;;9.16;84.43
81909;BME280;71372;43.514;1.512;2024-01-27T01:22:27;101675.31;;;9.13;84.15
81909;BME280;71372;43.514;1.512;2024-01-27T01:24:53;101671.78;;;9.13;84.43
81909;BME280;71372;43.514;1.512;2024-01-27T01:27:19;101674.44;;;9.13;83.83
81909;BME280;71372;43.514;1.512;2024-01-27T01:29:46;101682.41;;;9.11;84.32
81909;BME280;71372;43.514;1.512;2024-01-27T01:32:12;101686.88;;;9.09;83.85
81909;BME280;71372;43.514;1.512;2024-01-27T01:34:38;101674.53;;;9.06;84.10
81909;BME280;71372;43.514;1.512;2024-01-27T01:37:04;101681.69;;;9.03;84.15
81909;BME280;71372;43.514;1.512;2024-01-27T01:39:30;101682.59;;;9.02;84.07
81909;BME280;71372;43.514;1.512;2024-01-27T01:41:56;101686.13;;;8.99;84.41
81909;BME280;71372;43.514;1.512;2024-01-27T01:44:25;101685.28;;;8.97;83.59
81909;BME280;71372;43.514;1.512;2024-01-27T01:46:55;101687.94;;;8.97;84.16
81909;BME280;71372;43.514;1.512;2024-01-27T01:49:21;101691.50;;;8.96;84.62
81909;BME280;71372;43.514;1.512;2024-01-27T01:51:48;101690.63;;;8.96;84.27
81909;BME280;71372;43.514;1.512;2024-01-27T01:54:14;101680.91;;;8.95;83.83
81909;BME280;71372;43.514;1.512;2024-01-27T01:56:40;101682.69;;;8.94;84.43
81909;BME280;71372;43.514;1.512;2024-01-27T01:59:07;101687.09;;;8.95;83.90
81909;BME280;71372;43.514;1.512;2024-01-27T02:01:33;101682.75;;;8.91;84.70
81909;BME280;71372;43.514;1.512;2024-01-27T02:03:59;101679.22;;;8.88;84.80
81909;BME280;71372;43.514;1.512;2024-01-27T02:06:25;101670.50;;;8.81;84.93
81909;BME280;71372;43.514;1.512;2024-01-27T02:08:51;101677.63;;;8.79;84.36
81909;BME280;71372;43.514;1.512;2024-01-27T02:11:17;101667.91;;;8.75;84.65
81909;BME280;71372;43.514;1.512;2024-01-27T02:13:43;101662.63;;;8.73;84.42
81909;BME280;71372;43.514;1.512;2024-01-27T02:16:09;101663.53;;;8.72;84.69
81909;BME280;71372;43.514;1.512;2024-01-27T02:18:35;101657.38;;;8.70;84.72
81909;BME280;71372;43.514;1.512;2024-01-27T02:21:01;101662.66;;;8.72;84.78
81909;BME280;71372;43.514;1.512;2024-01-27T02:23:27;101659.06;;;8.74;84.36
81909;BME280;71372;43.514;1.512;2024-01-27T02:25:53;101663.50;;;8.77;84.62
81909;BME280;71372;43.514;1.512;2024-01-27T02:28:20;101657.28;;;8.75;84.55
81909;BME280;71372;43.514;1.512;2024-01-27T02:30:45;101651.19;;;8.70;84.37
81909;BME280;71372;43.514;1.512;2024-01-27T02:33:11;101645.03;;;8.68;84.89
81909;BME280;71372;43.514;1.512;2024-01-27T02:35:37;101644.16;;;8.67;84.11
81909;BME280;71372;43.514;1.512;2024-01-27T02:38:03;101643.31;;;8.65;84.26
81909;BME280;71372;43.514;1.512;2024-01-27T02:40:29;101635.38;;;8.62;84.40
81909;BME280;71372;43.514;1.512;2024-01-27T02:42:55;101627.44;;;8.61;84.84
81909;BME280;71372;43.514;1.512;2024-01-27T02:45:21;101629.22;;;8.59;85.01
81909;BME280;71372;43.514;1.512;2024-01-27T02:47:47;101631.03;;;8.57;84.15
81909;BME280;71372;43.514;1.512;2024-01-27T02:50:13;101626.63;;;8.56;84.70
81909;BME280;71372;43.514;1.512;2024-01-27T02:52:39;101628.38;;;8.57;84.85
81909;BME280;71372;43.514;1.512;2024-01-27T02:55:05;101620.41;;;8.57;84.38
81909;BME280;71372;43.514;1.512;2024-01-27T02:57:31;101615.97;;;8.59;84.97
81909;BME280;71372;43.514;1.512;2024-01-27T02:59:57;101613.25;;;8.62;84.56
81909;BME280;71372;43.514;1.512;2024-01-27T03:02:23;101606.13;;;8.64;84.27
81909;BME280;71372;43.514;1.512;2024-01-27T03:04:49;101608.78;;;8.67;84.73
81909;BME280;71372;43.514;1.512;2024-01-27T03:07:15;101617.59;;;8.69;84.68
81909;BME280;71372;43.514;1.512;2024-01-27T03:09:41;101611.34;;;8.71;84.15
81909;BME280;71372;43.514;1.512;2024-01-27T03:12:07;101618.38;;;8.74;84.60
81909;BME280;71372;43.514;1.512;2024-01-27T03:14:33;101622.78;;;8.75;84.30
81909;BME280;71372;43.514;1.512;2024-01-27T03:16:59;101620.13;;;8.75;84.50
81909;BME280;71372;43.514;1.512;2024-01-27T03:19:25;101609.53;;;8.73;84.49
81909;BME280;71372;43.514;1.512;2024-01-27T03:21:51;101609.56;;;8.72;84.62
81909;BME280;71372;43.514;1.512;2024-01-27T03:24:17;101605.22;;;8.68;84.30
81909;BME280;71372;43.514;1.512;2024-01-27T03:26:43;101609.66;;;8.66;84.70
81909;BME280;71372;43.514;1.512;2024-01-27T03:29:09;101611.50;;;8.61;84.34
81909;BME280;71372;43.514;1.512;2024-01-27T03:31:35;101611.56;;;8.58;84.04
81909;BME280;71372;43.514;1.512;2024-01-27T03:34:02;101602.75;;;8.56;84.48
81909;BME280;71372;43.514;1.512;2024-01-27T03:36:28;101608.09;;;8.53;84.22
81909;BME280;71372;43.514;1.512;2024-01-27T03:38:57;101606.31;;;8.52;84.31
81909;BME280;71372;43.514;1.512;2024-01-27T03:41:24;101611.69;;;8.48;84.93
81909;BME280;71372;43.514;1.512;2024-01-27T03:43:50;101611.69;;;8.48;84.50
81909;BME280;71372;43.514;1.512;2024-01-27T03:46:16;101611.69;;;8.48;84.15
81909;BME280;71372;43.514;1.512;2024-01-27T03:48:42;101601.91;;;8.50;84.30
81909;BME280;71372;43.514;1.512;2024-01-27T03:51:08;101599.31;;;8.47;84.39
81909;BME280;71372;43.514;1.512;2024-01-27T03:53:34;101594.88;;;8.48;84.95
81909;BME280;71372;43.514;1.512;2024-01-27T03:56:00;101602.84;;;8.48;84.20
81909;BME280;71372;43.514;1.512;2024-01-27T03:58:30;101601.97;;;8.47;85.08
81909;BME280;71372;43.514;1.512;2024-01-27T04:00:57;101600.19;;;8.48;84.86
81909;BME280;71372;43.514;1.512;2024-01-27T04:03:23;101589.53;;;8.49;84.73
81909;BME280;71372;43.514;1.512;2024-01-27T04:05:49;101589.53;;;8.51;84.79
81909;BME280;71372;43.514;1.512;2024-01-27T04:08:15;101592.19;;;8.53;84.95
81909;BME280;71372;43.514;1.512;2024-01-27T04:10:41;101591.28;;;8.54;84.77
81909;BME280;71372;43.514;1.512;2024-01-27T04:13:07;101595.69;;;8.55;84.62
81909;BME280;71372;43.514;1.512;2024-01-27T04:15:33;101581.50;;;8.56;84.74
81909;BME280;71372;43.514;1.512;2024-01-27T04:18:05;101580.56;;;8.58;84.42
81909;BME280;71372;43.514;1.512;2024-01-27T04:20:34;101567.31;;;8.58;84.43
81909;BME280;71372;43.514;1.512;2024-01-27T04:23:00;101562.84;;;8.60;84.49
81909;BME280;71372;43.514;1.512;2024-01-27T04:25:26;101571.69;;;8.61;84.77
81909;BME280;71372;43.514;1.512;2024-01-27T04:27:52;101572.56;;;8.61;84.83
81909;BME280;71372;43.514;1.512;2024-01-27T04:30:19;101588.50;;;8.60;84.43
81909;BME280;71372;43.514;1.512;2024-01-27T04:32:45;101578.84;;;8.56;84.35
81909;BME280;71372;43.514;1.512;2024-01-27T04:35:11;101579.75;;;8.55;85.05
81909;BME280;71372;43.514;1.512;2024-01-27T04:37:38;101570.03;;;8.54;84.13
81909;BME280;71372;43.514;1.512;2024-01-27T04:40:07;101568.28;;;8.51;84.41
81909;BME280;71372;43.514;1.512;2024-01-27T04:42:33;101573.69;;;8.46;84.04
81909;BME280;71372;43.514;1.512;2024-01-27T04:45:00;101570.22;;;8.41;84.50
81909;BME280;71372;43.514;1.512;2024-01-27T04:47:26;101567.59;;;8.38;84.62
81909;BME280;71372;43.514;1.512;2024-01-27T04:49:52;101569.41;;;8.36;84.71
81909;BME280;71372;43.514;1.512;2024-01-27T04:52:18;101572.97;;;8.35;84.14
81909;BME280;71372;43.514;1.512;2024-01-27T04:54:44;101568.53;;;8.33;84.10
81909;BME280;71372;43.514;1.512;2024-01-27T04:57:10;101568.56;;;8.31;84.61
81909;BME280;71372;43.514;1.512;2024-01-27T04:59:35;101564.16;;;8.30;84.18
81909;BME280;71372;43.514;1.512;2024-01-27T05:02:01;101554.44;;;8.31;84.39
81909;BME280;71372;43.514;1.512;2024-01-27T05:04:27;101553.56;;;8.30;84.96
81909;BME280;71372;43.514;1.512;2024-01-27T05:06:53;101558.88;;;8.30;84.56
81909;BME280;71372;43.514;1.512;2024-01-27T05:09:19;101549.22;;;8.23;84.38
81909;BME280;71372;43.514;1.512;2024-01-27T05:11:45;101548.44;;;8.18;84.61
81909;BME280;71372;43.514;1.512;2024-01-27T05:14:11;101551.09;;;8.18;84.59
81909;BME280;71372;43.514;1.512;2024-01-27T05:16:37;101564.34;;;8.18;84.70
81909;BME280;71372;43.514;1.512;2024-01-27T05:19:03;101559.09;;;8.13;84.57
81909;BME280;71372;43.514;1.512;2024-01-27T05:21:29;101557.44;;;8.06;85.29
81909;BME280;71372;43.514;1.512;2024-01-27T05:23:55;101561.84;;;8.07;84.75
81909;BME280;71372;43.514;1.512;2024-01-27T05:26:21;101560.97;;;8.07;84.78
81909;BME280;71372;43.514;1.512;2024-01-27T05:28:47;101566.25;;;8.07;84.83
81909;BME280;71372;43.514;1.512;2024-01-27T05:31:13;101562.72;;;8.05;85.15
81909;BME280;71372;43.514;1.512;2024-01-27T05:33:39;101562.72;;;8.05;84.93
81909;BME280;71372;43.514;1.512;2024-01-27T05:36:07;101546.81;;;8.06;84.81
81909;BME280;71372;43.514;1.512;2024-01-27T05:38:33;101553.00;;;8.07;85.33
81909;BME280;71372;43.514;1.512;2024-01-27T05:41:02;101553.91;;;8.04;84.54
81909;BME280;71372;43.514;1.512;2024-01-27T05:43:29;101552.16;;;8.02;85.54
81909;BME280;71372;43.514;1.512;2024-01-27T05:45:55;101553.91;;;8.03;85.06
81909;BME280;71372;43.514;1.512;2024-01-27T05:48:21;101553.13;;;7.98;85.68
81909;BME280;71372;43.514;1.512;2024-01-27T05:51:00;101554.03;;;7.97;84.85
81909;BME280;71372;43.514;1.512;2024-01-27T05:53:26;101555.78;;;7.98;85.26
81909;BME280;71372;43.514;1.512;2024-01-27T05:55:53;101555.78;;;7.98;85.33
81909;BME280;71372;43.514;1.512;2024-01-27T05:58:20;101557.53;;;7.99;84.94
81909;BME280;71372;43.514;1.512;2024-01-27T06:00:49;101557.53;;;7.99;84.51
81909;BME280;71372;43.514;1.512;2024-01-27T06:03:15;101556.66;;;7.98;85.01
81909;BME280;71372;43.514;1.512;2024-01-27T06:05:43;101560.19;;;7.99;85.29
81909;BME280;71372;43.514;1.512;2024-01-27T06:08:09;101559.28;;;8.00;85.25
81909;BME280;71372;43.514;1.512;2024-01-27T06:10:35;101556.59;;;8.01;84.92
81909;BME280;71372;43.514;1.512;2024-01-27T06:13:04;101552.13;;;8.05;85.68
81909;BME280;71372;43.514;1.512;2024-01-27T06:15:30;101546.84;;;8.03;84.90
81909;BME280;71372;43.514;1.512;2024-01-27T06:17:56;101536.22;;;8.05;84.61
81909;BME280;71372;43.514;1.512;2024-01-27T06:20:23;101550.34;;;8.07;85.07
81909;BME280;71372;43.514;1.512;2024-01-27T06:22:49;101558.31;;;8.07;84.93
81909;BME280;71372;43.514;1.512;2024-01-27T06:25:15;101561.84;;;8.07;85.32
81909;BME280;71372;43.514;1.512;2024-01-27T06:27:42;101554.75;;;8.08;84.67
81909;BME280;71372;43.514;1.512;2024-01-27T06:30:09;101554.75;;;8.08;85.00
81909;BME280;71372;43.514;1.512;2024-01-27T06:32:36;101558.31;;;8.07;84.70
81909;BME280;71372;43.514;1.512;2024-01-27T06:35:03;101553.00;;;8.07;84.75
81909;BME280;71372;43.514;1.512;2024-01-27T06:37:29;101549.53;;;8.00;84.80
81909;BME280;71372;43.514;1.512;2024-01-27T06:39:55;101556.72;;;7.94;84.71
81909;BME280;71372;43.514;1.512;2024-01-27T06:42:21;101560.31;;;7.88;84.54
81909;BME280;71372;43.514;1.512;2024-01-27T06:44:47;101556.84;;;7.84;85.21
81909;BME280;71372;43.514;1.512;2024-01-27T06:47:13;101559.53;;;7.81;85.08
81909;BME280;71372;43.514;1.512;2024-01-27T06:49:39;101563.03;;;7.80;84.94
81909;BME280;71372;43.514;1.512;2024-01-27T06:52:05;101565.69;;;7.80;84.70
81909;BME280;71372;43.514;1.512;2024-01-27T06:54:31;101563.94;;;7.81;84.33
81909;BME280;71372;43.514;1.512;2024-01-27T06:56:59;101570.16;;;7.78;84.84
81909;BME280;71372;43.514;1.512;2024-01-27T06:59:26;101565.78;;;7.76;84.68
81909;BME280;71372;43.514;1.512;2024-01-27T07:01:52;101563.09;;;7.77;85.15
81909;BME280;71372;43.514;1.512;2024-01-27T07:04:18;101566.66;;;7.76;84.41
81909;BME280;71372;43.514;1.512;2024-01-27T07:06:44;101574.66;;;7.73;85.08
81909;BME280;71372;43.514;1.512;2024-01-27T07:09:10;101570.25;;;7.72;84.51
81909;BME280;71372;43.514;1.512;2024-01-27T07:11:37;101566.69;;;7.73;84.62
81909;BME280;71372;43.514;1.512;2024-01-27T07:14:04;101570.19;;;7.75;84.80
81909;BME280;71372;43.514;1.512;2024-01-27T07:16:32;101566.59;;;7.79;84.70
81909;BME280;71372;43.514;1.512;2024-01-27T07:18:59;101564.88;;;7.77;84.92
81909;BME280;71372;43.514;1.512;2024-01-27T07:21:25;101572.81;;;7.77;85.12
81909;BME280;71372;43.514;1.512;2024-01-27T07:23:52;101580.00;;;7.70;84.85
81909;BME280;71372;43.514;1.512;2024-01-27T07:26:19;101575.63;;;7.65;85.45
81909;BME280;71372;43.514;1.512;2024-01-27T07:28:45;101578.28;;;7.63;85.01
81909;BME280;71372;43.514;1.512;2024-01-27T07:31:12;101574.75;;;7.62;84.91
81909;BME280;71372;43.514;1.512;2024-01-27T07:33:39;101576.56;;;7.60;85.21
81909;BME280;71372;43.514;1.512;2024-01-27T07:36:05;101579.19;;;7.62;85.28
81909;BME280;71372;43.514;1.512;2024-01-27T07:38:31;101581.78;;;7.65;84.91
81909;BME280;71372;43.514;1.512;2024-01-27T07:40:56;101576.53;;;7.63;84.78
81909;BME280;71372;43.514;1.512;2024-01-27T07:43:24;101580.94;;;7.63;85.02
81909;BME280;71372;43.514;1.512;2024-01-27T07:45:50;101577.47;;;7.58;85.04
81909;BME280;71372;43.514;1.512;2024-01-27T07:48:18;101578.28;;;7.65;85.15
81909;BME280;71372;43.514;1.512;2024-01-27T07:50:44;101581.75;;;7.70;84.83
81909;BME280;71372;43.514;1.512;2024-01-27T07:53:15;101573.75;;;7.74;84.62
81909;BME280;71372;43.514;1.512;2024-01-27T07:55:41;101577.22;;;7.78;85.38
81909;BME280;71372;43.514;1.512;2024-01-27T07:58:06;101577.19;;;7.81;84.78
81909;BME280;71372;43.514;1.512;2024-01-27T08:00:32;101573.63;;;7.83;85.21
81909;BME280;71372;43.514;1.512;2024-01-27T08:02:58;101573.59;;;7.86;84.87
81909;BME280;71372;43.514;1.512;2024-01-27T08:05:24;101576.22;;;7.88;84.79
81909;BME280;71372;43.514;1.512;2024-01-27T08:07:50;101579.75;;;7.88;84.85
81909;BME280;71372;43.514;1.512;2024-01-27T08:10:16;101583.34;;;7.84;84.15
81909;BME280;71372;43.514;1.512;2024-01-27T08:12:42;101583.38;;;7.80;84.28
81909;BME280;71372;43.514;1.512;2024-01-27T08:15:08;101586.97;;;7.76;84.50
81909;BME280;71372;43.514;1.512;2024-01-27T08:17:34;101589.69;;;7.71;84.49
81909;BME280;71372;43.514;1.512;2024-01-27T08:20:01;101591.47;;;7.71;84.71
81909;BME280;71372;43.514;1.512;2024-01-27T08:22:28;101597.66;;;7.68;84.38
81909;BME280;71372;43.514;1.512;2024-01-27T08:24:54;101601.19;;;7.69;84.74
81909;BME280;71372;43.514;1.512;2024-01-27T08:27:20;101598.53;;;7.69;85.12
81909;BME280;71372;43.514;1.512;2024-01-27T08:29:46;101599.41;;;7.69;84.58
81909;BME280;71372;43.514;1.512;2024-01-27T08:32:12;101600.31;;;7.68;85.02
81909;BME280;71372;43.514;1.512;2024-01-27T08:34:38;101603.97;;;7.58;84.70
81909;BME280;71372;43.514;1.512;2024-01-27T08:37:14;101599.56;;;7.58;84.79
81909;BME280;71372;43.514;1.512;2024-01-27T08:39:40;101605.75;;;7.59;84.77
81909;BME280;71372;43.514;1.512;2024-01-27T08:42:06;101601.28;;;7.61;84.65
81909;BME280;71372;43.514;1.512;2024-01-27T08:44:32;101613.69;;;7.57;84.83
81909;BME280;71372;43.514;1.512;2024-01-27T08:46:58;101603.09;;;7.59;84.63
81909;BME280;71372;43.514;1.512;2024-01-27T08:49:24;101608.38;;;7.60;84.86
81909;BME280;71372;43.514;1.512;2024-01-27T08:51:50;101601.25;;;7.64;84.90
81909;BME280;71372;43.514;1.512;2024-01-27T08:54:16;101606.47;;;7.72;84.92
81909;BME280;71372;43.514;1.512;2024-01-27T08:56:42;101608.19;;;7.76;84.56
81909;BME280;71372;43.514;1.512;2024-01-27T08:59:08;101607.31;;;7.74;84.81
81909;BME280;71372;43.514;1.512;2024-01-27T09:01:34;101601.09;;;7.76;84.71
81909;BME280;71372;43.514;1.512;2024-01-27T09:04:00;101597.63;;;7.73;84.70
81909;BME280;71372;43.514;1.512;2024-01-27T09:06:26;101591.41;;;7.75;84.33
81909;BME280;71372;43.514;1.512;2024-01-27T09:08:52;101592.19;;;7.83;84.65
81909;BME280;71372;43.514;1.512;2024-01-27T09:11:18;101593.84;;;7.92;84.41
81909;BME280;71372;43.514;1.512;2024-01-27T09:13:44;101593.81;;;7.95;84.84
81909;BME280;71372;43.514;1.512;2024-01-27T09:16:11;101587.53;;;8.01;84.11
81909;BME280;71372;43.514;1.512;2024-01-27T09:18:39;101595.44;;;8.07;84.05
81909;BME280;71372;43.514;1.512;2024-01-27T09:21:05;101594.53;;;8.08;84.35
81909;BME280;71372;43.514;1.512;2024-01-27T09:23:31;101591.78;;;8.14;84.18
81909;BME280;71372;43.514;1.512;2024-01-27T09:25:57;101582.00;;;8.19;84.54
81909;BME280;71372;43.514;1.512;2024-01-27T09:28:24;101582.78;;;8.26;84.00
81909;BME280;71372;43.514;1.512;2024-01-27T09:30:52;101580.03;;;8.35;84.08
81909;BME280;71372;43.514;1.512;2024-01-27T09:33:18;101585.28;;;8.39;83.74
81909;BME280;71372;43.514;1.512;2024-01-27T09:35:47;101590.44;;;8.48;83.61
81909;BME280;71372;43.514;1.512;2024-01-27T09:38:13;101589.44;;;8.57;83.68
81909;BME280;71372;43.514;1.512;2024-01-27T09:40:40;101593.75;;;8.66;83.26
81909;BME280;71372;43.514;1.512;2024-01-27T09:43:11;101590.06;;;8.73;83.86
81909;BME280;71372;43.514;1.512;2024-01-27T09:45:38;101592.56;;;8.84;83.40
81909;BME280;71372;43.514;1.512;2024-01-27T09:48:07;101590.66;;;8.92;83.62
81909;BME280;71372;43.514;1.512;2024-01-27T09:50:34;101589.66;;;8.97;83.28
81909;BME280;71372;43.514;1.512;2024-01-27T09:53:00;101596.59;;;9.07;83.40
81909;BME280;71372;43.514;1.512;2024-01-27T09:55:26;101596.50;;;9.14;83.11
81909;BME280;71372;43.514;1.512;2024-01-27T09:57:52;101590.25;;;9.16;82.59
81909;BME280;71372;43.514;1.512;2024-01-27T10:00:19;101584.84;;;9.21;83.30
81909;BME280;71372;43.514;1.512;2024-01-27T10:02:46;101583.91;;;9.25;82.11
81909;BME280;71372;43.514;1.512;2024-01-27T10:05:15;101584.72;;;9.28;81.95
81909;BME280;71372;43.514;1.512;2024-01-27T10:07:42;101586.50;;;9.28;81.42
81909;BME280;71372;43.514;1.512;2024-01-27T10:10:08;101590.00;;;9.30;81.84
81909;BME280;71372;43.514;1.512;2024-01-27T10:12:41;101595.22;;;9.34;81.59
81909;BME280;71372;43.514;1.512;2024-01-27T10:15:21;101584.44;;;9.42;82.17
81909;BME280;71372;43.514;1.512;2024-01-27T10:17:47;101590.50;;;9.50;81.78
81909;BME280;71372;43.514;1.512;2024-01-27T10:20:14;101591.28;;;9.55;81.47
81909;BME280;71372;43.514;1.512;2024-01-27T10:22:42;101584.97;;;9.61;81.86
81909;BME280;71372;43.514;1.512;2024-01-27T10:25:09;101589.31;;;9.65;81.45
81909;BME280;71372;43.514;1.512;2024-01-27T10:27:37;101584.94;;;9.62;80.97
81909;BME280;71372;43.514;1.512;2024-01-27T10:30:04;101579.69;;;9.58;81.30
81909;BME280;71372;43.514;1.512;2024-01-27T10:32:31;101584.09;;;9.59;81.67
81909;BME280;71372;43.514;1.512;2024-01-27T10:35:05;101585.81;;;9.63;81.21
81909;BME280;71372;43.514;1.512;2024-01-27T10:37:31;101586.56;;;9.70;81.61
81909;BME280;71372;43.514;1.512;2024-01-27T10:40:04;101582.06;;;9.73;81.35
81909;BME280;71372;43.514;1.512;2024-01-27T10:42:30;101582.00;;;9.76;81.69
81909;BME280;71372;43.514;1.512;2024-01-27T10:44:59;101590.72;;;9.84;81.51
81909;BME280;71372;43.514;1.512;2024-01-27T10:47:30;101587.88;;;9.92;81.44
81909;BME280;71372;43.514;1.512;2024-01-27T10:49:59;101585.22;;;9.92;81.11
81909;BME280;71372;43.514;1.512;2024-01-27T10:52:31;101580.78;;;9.92;81.44
81909;BME280;71372;43.514;1.512;2024-01-27T10:54:59;101579.88;;;9.93;80.97
81909;BME280;71372;43.514;1.512;2024-01-27T10:57:29;101580.88;;;9.88;81.24
81909;BME280;71372;43.514;1.512;2024-01-27T10:59:57;101573.13;;;9.77;81.19
81909;BME280;71372;43.514;1.512;2024-01-27T11:02:24;101571.31;;;9.79;81.25
81909;BME280;71372;43.514;1.512;2024-01-27T11:04:51;101561.72;;;9.71;81.50
81909;BME280;71372;43.514;1.512;2024-01-27T11:07:19;101559.97;;;9.71;80.84
81909;BME280;71372;43.514;1.512;2024-01-27T11:09:49;101554.53;;;9.76;81.13
81909;BME280;71372;43.514;1.512;2024-01-27T11:12:19;101549.91;;;9.85;81.00
81909;BME280;71372;43.514;1.512;2024-01-27T11:14:47;101544.41;;;9.94;81.02
81909;BME280;71372;43.514;1.512;2024-01-27T11:17:13;101542.47;;;10.01;80.87
81909;BME280;71372;43.514;1.512;2024-01-27T11:19:41;101539.59;;;10.10;80.76
81909;BME280;71372;43.514;1.512;2024-01-27T11:22:08;101534.03;;;10.21;80.82
81909;BME280;71372;43.514;1.512;2024-01-27T11:24:34;101538.28;;;10.31;80.42
81909;BME280;71372;43.514;1.512;2024-01-27T11:27:04;101525.59;;;10.42;80.33
81909;BME280;71372;43.514;1.512;2024-01-27T11:29:30;101523.78;;;10.44;79.85
81909;BME280;71372;43.514;1.512;2024-01-27T11:32:01;101516.75;;;10.42;79.98
81909;BME280;71372;43.514;1.512;2024-01-27T11:34:43;101512.16;;;10.47;79.43
81909;BME280;71372;43.514;1.512;2024-01-27T11:37:11;101518.19;;;10.53;79.81
81909;BME280;71372;43.514;1.512;2024-01-27T11:39:37;101509.53;;;10.45;79.48
81909;BME280;71372;43.514;1.512;2024-01-27T11:42:08;101507.59;;;10.52;79.69
81909;BME280;71372;43.514;1.512;2024-01-27T11:44:37;101500.47;;;10.54;79.74
81909;BME280;71372;43.514;1.512;2024-01-27T11:47:04;101508.28;;;10.60;79.73
81909;BME280;71372;43.514;1.512;2024-01-27T11:49:30;101495.63;;;10.70;79.71
81909;BME280;71372;43.514;1.512;2024-01-27T11:51:56;101492.00;;;10.72;79.26
81909;BME280;71372;43.514;1.512;2024-01-27T11:54:23;101476.84;;;10.74;79.39
81909;BME280;71372;43.514;1.512;2024-01-27T11:56:49;101473.91;;;10.85;79.45
81909;BME280;71372;43.514;1.512;2024-01-27T11:59:15;101466.63;;;10.92;79.30
81909;BME280;71372;43.514;1.512;2024-01-27T12:01:41;101470.03;;;10.97;79.24
81909;BME280;71372;43.514;1.512;2024-01-27T12:04:07;101463.00;;;10.94;79.16
81909;BME280;71372;43.514;1.512;2024-01-27T12:06:35;101474.59;;;10.93;79.30
81909;BME280;71372;43.514;1.512;2024-01-27T12:09:01;101466.69;;;10.89;78.97
81909;BME280;71372;43.514;1.512;2024-01-27T12:11:27;101458.78;;;10.86;79.16
81909;BME280;71372;43.514;1.512;2024-01-27T12:13:53;101450.66;;;10.92;79.24
81909;BME280;71372;43.514;1.512;2024-01-27T12:16:21;101440.81;;;10.94;78.86
81909;BME280;71372;43.514;1.512;2024-01-27T12:18:52;101441.56;;;10.99;79.19
81909;BME280;71372;43.514;1.512;2024-01-27T12:21:21;101437.72;;;11.09;79.37
81909;BME280;71372;43.514;1.512;2024-01-27T12:23:53;101432.13;;;11.18;79.04
81909;BME280;71372;43.514;1.512;2024-01-27T12:26:30;101424.88;;;11.23;78.89
81909;BME280;71372;43.514;1.512;2024-01-27T12:28:57;101421.13;;;11.30;78.93
81909;BME280;71372;43.514;1.512;2024-01-27T12:31:26;101413.13;;;11.30;78.53
81909;BME280;71372;43.514;1.512;2024-01-27T12:33:55;101405.22;;;11.27;78.16
81909;BME280;71372;43.514;1.512;2024-01-27T12:36:22;101406.81;;;11.33;78.60
81909;BME280;71372;43.514;1.512;2024-01-27T12:39:00;101397.59;;;11.45;78.59
81909;BME280;71372;43.514;1.512;2024-01-27T12:41:26;101391.09;;;11.53;78.45
81909;BME280;71372;43.514;1.512;2024-01-27T12:43:53;101381.22;;;11.57;78.04
81909;BME280;71372;43.514;1.512;2024-01-27T12:46:19;101380.38;;;11.55;78.31
81909;BME280;71372;43.514;1.512;2024-01-27T12:48:45;101373.94;;;11.62;78.11
81909;BME280;71372;43.514;1.512;2024-01-27T12:51:11;101367.63;;;11.64;78.18
81909;BME280;71372;43.514;1.512;2024-01-27T12:53:39;101369.22;;;11.70;77.83
81909;BME280;71372;43.514;1.512;2024-01-27T12:56:08;101368.13;;;11.77;78.00
81909;BME280;71372;43.514;1.512;2024-01-27T12:58:35;101365.31;;;11.82;77.78